Time;durP1;ratioP1;P1;durP2;ratioP2;P2;SDS_P1;SDS_P2;PMS_P1;PMS_P2;Temp;Humidity;BMP_temperature;BMP_pressure;BME280_temperature;BME280_humidity;BME280_pressure;Samples;Min_cycle;Max_cycle;Signal;HPM_P1;HPM_P2
2022/09/01 00:00:12;;;;;;;2.13;1.70;;;23.80;58.50;;;;;;5033773;28;20520;-58
2022/09/01 00:02:41;;;;;;;2.17;1.90;;;23.80;58.60;;;;;;5033944;28;20444;-58
2022/09/01 00:05:09;;;;;;;1.70;1.60;;;23.80;58.60;;;;;;5033601;28;20894;-59
2022/09/01 00:07:36;;;;;;;4.93;1.80;;;23.80;58.70;;;;;;5033031;28;20477;-61
2022/09/01 00:10:06;;;;;;;1.73;1.63;;;23.80;58.60;;;;;;5031748;28;20529;-61
2022/09/01 00:12:34;;;;;;;2.00;1.50;;;23.80;58.60;;;;;;5033141;28;20454;-64
2022/09/01 00:15:01;;;;;;;1.77;1.67;;;23.80;58.80;;;;;;5033422;28;20879;-59
2022/09/01 00:17:29;;;;;;;1.60;1.50;;;23.80;58.80;;;;;;5033586;28;20881;-62
2022/09/01 00:19:58;;;;;;;3.23;2.13;;;23.80;58.90;;;;;;5033359;28;20938;-63
2022/09/01 00:22:25;;;;;;;1.60;1.47;;;23.80;58.90;;;;;;5033343;28;20480;-59
2022/09/01 00:24:51;;;;;;;1.90;1.47;;;23.80;59.00;;;;;;5033703;28;20480;-65
2022/09/01 00:27:19;;;;;;;1.60;1.60;;;23.80;59.10;;;;;;5033411;28;20876;-59
2022/09/01 00:29:46;;;;;;;2.00;1.57;;;23.80;59.20;;;;;;5033171;28;20608;-59
2022/09/01 00:32:13;;;;;;;2.30;2.10;;;23.80;59.20;;;;;;5033116;28;20452;-62
2022/09/01 00:34:40;;;;;;;2.13;1.70;;;23.80;59.30;;;;;;5033338;28;20540;-62
2022/09/01 00:37:08;;;;;;;1.63;1.53;;;23.80;59.30;;;;;;5033199;28;20537;-61
2022/09/01 00:39:35;;;;;;;2.60;2.10;;;23.70;59.20;;;;;;5034778;28;20512;-65
2022/09/01 00:42:02;;;;;;;1.77;1.60;;;23.70;59.30;;;;;;5034487;28;20485;-65
2022/09/01 00:44:30;;;;;;;4.20;1.90;;;23.70;59.40;;;;;;5034398;28;20499;-66
2022/09/01 00:46:57;;;;;;;2.33;2.23;;;23.70;59.50;;;;;;5034518;28;20459;-65
2022/09/01 00:49:28;;;;;;;2.00;1.90;;;23.70;59.40;;;;;;5033799;28;20550;-65
2022/09/01 00:52:05;;;;;;;1.40;1.40;;;23.70;59.50;;;;;;5034490;28;20476;-65
2022/09/01 00:54:38;;;;;;;2.53;2.43;;;23.70;59.50;;;;;;5034282;28;20485;-65
2022/09/01 00:57:06;;;;;;;2.10;2.00;;;23.70;59.60;;;;;;5034664;28;20449;-65
2022/09/01 00:59:33;;;;;;;2.13;2.03;;;23.70;59.60;;;;;;5033878;28;20497;-65
2022/09/01 01:02:00;;;;;;;2.20;1.90;;;23.70;59.60;;;;;;5034304;28;20481;-66
2022/09/01 01:04:28;;;;;;;2.30;2.20;;;23.70;59.70;;;;;;5033981;28;20511;-64
2022/09/01 01:07:01;;;;;;;1.70;1.60;;;23.70;59.80;;;;;;5034445;28;20449;-65
2022/09/01 01:09:30;;;;;;;1.67;1.57;;;23.70;59.70;;;;;;5033427;28;20483;-64
2022/09/01 01:11:59;;;;;;;2.10;1.90;;;23.70;59.70;;;;;;5034264;28;20954;-65
2022/09/01 01:14:30;;;;;;;2.30;1.70;;;23.70;59.70;;;;;;5034011;28;20870;-65
2022/09/01 01:16:58;;;;;;;1.90;1.80;;;23.70;59.90;;;;;;5034325;28;20444;-65
2022/09/01 01:25:17;;;;;;;1.70;1.63;;;23.70;59.80;;;;;;5033965;28;20782;-66
2022/09/01 01:27:45;;;;;;;1.90;1.70;;;23.70;59.90;;;;;;5033472;28;20484;-65
2022/09/01 01:30:13;;;;;;;2.60;1.83;;;23.70;60.20;;;;;;5033300;28;20540;-65
2022/09/01 01:32:42;;;;;;;2.20;1.93;;;23.70;60.30;;;;;;5033556;28;20441;-65
2022/09/01 01:35:13;;;;;;;2.67;2.20;;;23.70;60.20;;;;;;5033262;28;20441;-65
2022/09/01 01:37:45;;;;;;;2.43;1.77;;;23.70;60.30;;;;;;5033452;28;20560;-65
2022/09/01 01:40:14;;;;;;;1.70;1.60;;;23.70;60.60;;;;;;5033436;28;20481;-65
2022/09/01 01:42:44;;;;;;;2.30;2.10;;;23.70;61.00;;;;;;5033701;28;20449;-66
2022/09/01 01:45:15;;;;;;;1.50;1.50;;;23.70;61.00;;;;;;5033593;28;20445;-66
2022/09/01 01:47:45;;;;;;;1.80;1.70;;;23.70;60.90;;;;;;5033154;28;20476;-65
2022/09/01 01:50:13;;;;;;;1.80;1.70;;;23.60;60.80;;;;;;5033381;28;20457;-65
2022/09/01 01:52:40;;;;;;;4.30;2.20;;;23.70;60.90;;;;;;5033449;28;20449;-64
2022/09/01 01:55:11;;;;;;;1.93;1.83;;;23.70;61.00;;;;;;5033356;28;20460;-65
2022/09/01 01:57:40;;;;;;;2.50;2.37;;;23.70;61.10;;;;;;5032899;28;20476;-65
2022/09/01 02:00:10;;;;;;;1.70;1.60;;;23.60;61.00;;;;;;5033096;28;20460;-64
2022/09/01 02:02:38;;;;;;;1.67;1.57;;;23.70;61.10;;;;;;5033148;28;20484;-65
2022/09/01 02:05:06;;;;;;;2.13;1.67;;;23.60;61.10;;;;;;5033425;28;20507;-65
2022/09/01 02:07:33;;;;;;;1.80;1.70;;;23.60;61.10;;;;;;5032120;28;20456;-66
2022/09/01 02:10:00;;;;;;;1.80;1.70;;;23.60;61.10;;;;;;5032852;28;20519;-65
2022/09/01 02:12:27;;;;;;;1.40;1.40;;;23.70;61.30;;;;;;5032731;28;21019;-65
2022/09/01 02:14:56;;;;;;;2.23;1.93;;;23.60;61.20;;;;;;5032984;28;20469;-66
2022/09/01 02:17:26;;;;;;;2.13;2.03;;;23.60;61.40;;;;;;5032811;28;20453;-65
2022/09/01 02:19:55;;;;;;;2.30;2.10;;;23.60;61.40;;;;;;5032861;28;20451;-66
2022/09/01 02:22:22;;;;;;;2.80;1.63;;;23.60;61.40;;;;;;5033593;28;20456;-65
2022/09/01 02:24:51;;;;;;;1.50;1.40;;;23.60;61.60;;;;;;5033012;28;20509;-63
2022/09/01 02:27:20;;;;;;;1.90;1.80;;;23.60;61.60;;;;;;5032857;28;20449;-65
2022/09/01 02:29:50;;;;;;;4.50;1.70;;;23.60;61.50;;;;;;5032859;28;20487;-64
2022/09/01 02:32:20;;;;;;;2.10;2.00;;;23.60;61.50;;;;;;5032793;28;20445;-66
2022/09/01 02:34:52;;;;;;;2.13;2.03;;;23.60;61.50;;;;;;5032902;28;20455;-64
2022/09/01 02:37:24;;;;;;;1.97;1.87;;;23.60;61.70;;;;;;5032319;28;20445;-65
2022/09/01 02:39:52;;;;;;;1.40;1.30;;;23.60;61.80;;;;;;5032928;28;20814;-66
2022/09/01 02:42:26;;;;;;;1.77;1.67;;;23.60;62.20;;;;;;5033112;28;20447;-65
2022/09/01 02:44:54;;;;;;;2.27;2.07;;;23.60;62.40;;;;;;5032964;28;20468;-65
2022/09/01 02:47:22;;;;;;;2.20;2.10;;;23.60;62.40;;;;;;5033042;28;20938;-65
2022/09/01 02:49:50;;;;;;;1.87;1.77;;;23.60;62.40;;;;;;5032541;28;20480;-65
2022/09/01 02:52:19;;;;;;;1.73;1.53;;;23.60;62.40;;;;;;5032703;28;20474;-65
2022/09/01 02:54:48;;;;;;;1.93;1.70;;;23.60;62.40;;;;;;5032964;28;20488;-65
2022/09/01 02:57:15;;;;;;;2.57;2.20;;;23.60;62.40;;;;;;5032605;28;20515;-66
2022/09/01 02:59:42;;;;;;;1.70;1.60;;;23.60;62.50;;;;;;5032126;28;20548;-65
2022/09/01 03:02:10;;;;;;;1.70;1.53;;;23.60;62.50;;;;;;5032911;28;20861;-66
2022/09/01 03:04:37;;;;;;;2.57;2.37;;;23.60;62.60;;;;;;5032344;28;20540;-66
2022/09/01 03:07:07;;;;;;;1.70;1.60;;;23.60;62.60;;;;;;5033106;28;20812;-65
2022/09/01 03:09:35;;;;;;;2.03;1.73;;;23.60;62.60;;;;;;5032790;28;20485;-64
2022/09/01 03:12:06;;;;;;;2.50;2.00;;;23.50;62.50;;;;;;5032831;28;20464;-65
2022/09/01 03:14:32;;;;;;;2.17;2.07;;;23.50;62.60;;;;;;5032536;28;20477;-64
2022/09/01 03:17:00;;;;;;;3.80;2.07;;;23.50;62.70;;;;;;5033033;28;20473;-66
2022/09/01 03:19:40;;;;;;;1.90;1.80;;;23.50;62.80;;;;;;5035827;28;20519;-64
2022/09/01 03:22:08;;;;;;;2.07;1.97;;;23.50;62.70;;;;;;5036348;28;20472;-65
2022/09/01 03:24:36;;;;;;;1.60;1.60;;;23.50;62.80;;;;;;5036104;28;20469;-65
2022/09/01 03:27:02;;;;;;;2.40;2.30;;;23.50;62.80;;;;;;5036045;28;20460;-65
2022/09/01 03:29:29;;;;;;;2.07;1.90;;;23.50;62.90;;;;;;5035820;28;20494;-65
2022/09/01 03:31:56;;;;;;;2.10;2.00;;;23.50;62.80;;;;;;5035998;28;20461;-65
2022/09/01 03:34:23;;;;;;;1.87;1.80;;;23.50;62.90;;;;;;5035759;28;20484;-65
2022/09/01 03:36:50;;;;;;;1.73;1.70;;;23.50;63.20;;;;;;5036135;28;20449;-65
2022/09/01 03:39:19;;;;;;;1.37;1.37;;;23.50;63.50;;;;;;5035592;28;20473;-64
2022/09/01 03:41:46;;;;;;;4.77;1.50;;;23.50;63.70;;;;;;5035688;28;20481;-65
2022/09/01 03:44:15;;;;;;;2.03;1.93;;;23.50;63.70;;;;;;5035741;28;20485;-64
2022/09/01 03:46:43;;;;;;;2.50;2.40;;;23.50;63.40;;;;;;5036013;28;20457;-65
2022/09/01 03:49:13;;;;;;;3.30;3.07;;;23.40;63.20;;;;;;5035815;28;20515;-65
2022/09/01 03:51:42;;;;;;;2.90;1.90;;;23.40;63.30;;;;;;5035759;28;20541;-65
2022/09/01 03:54:09;;;;;;;2.37;2.27;;;23.40;63.50;;;;;;5034903;28;20504;-65
2022/09/01 03:56:40;;;;;;;3.70;1.63;;;23.40;63.30;;;;;;5035466;28;20484;-65
2022/09/01 03:59:07;;;;;;;2.03;1.93;;;23.40;63.30;;;;;;5035749;28;20465;-65
2022/09/01 04:01:42;;;;;;;1.80;1.70;;;23.40;63.50;;;;;;5035289;28;20460;-64
2022/09/01 04:04:12;;;;;;;4.13;2.00;;;23.40;63.50;;;;;;5035143;28;20502;-65
2022/09/01 04:06:39;;;;;;;4.73;1.80;;;23.40;63.50;;;;;;5035455;28;20448;-65
2022/09/01 04:09:07;;;;;;;2.00;1.90;;;23.40;63.50;;;;;;5034915;28;20484;-64
2022/09/01 04:11:35;;;;;;;2.60;2.40;;;23.40;63.50;;;;;;5035618;28;20564;-65
2022/09/01 04:14:03;;;;;;;1.87;1.77;;;23.40;63.50;;;;;;5035894;28;20504;-65
2022/09/01 04:19:24;;;;;;;2.27;2.17;;;23.40;63.40;;;;;;5035264;28;20441;-66
2022/09/01 04:21:53;;;;;;;1.90;1.70;;;23.40;63.50;;;;;;5035666;28;20455;-65
2022/09/01 04:24:22;;;;;;;2.13;1.90;;;23.40;63.80;;;;;;5035477;28;20449;-63
2022/09/01 04:26:51;;;;;;;2.03;1.93;;;23.40;63.80;;;;;;5034589;28;20449;-65
2022/09/01 04:29:23;;;;;;;2.07;1.97;;;23.40;63.70;;;;;;5033670;28;20580;-65
2022/09/01 04:31:50;;;;;;;2.10;2.00;;;23.40;63.70;;;;;;5035138;28;20997;-65
2022/09/01 04:34:17;;;;;;;2.33;2.13;;;23.40;63.90;;;;;;5034627;28;20451;-64
2022/09/01 04:36:45;;;;;;;2.30;2.20;;;23.40;64.30;;;;;;5032797;28;20961;-63
2022/09/01 04:39:12;;;;;;;2.47;2.27;;;23.40;64.20;;;;;;5032949;28;20484;-62
2022/09/01 04:41:45;;;;;;;2.37;2.20;;;23.40;63.90;;;;;;5033259;28;20537;-62
2022/09/01 04:44:17;;;;;;;4.13;2.80;;;23.40;63.70;;;;;;5033235;28;20814;-63
2022/09/01 04:46:49;;;;;;;5.90;3.20;;;23.40;63.80;;;;;;5032849;28;20453;-63
2022/09/01 04:49:21;;;;;;;3.67;2.83;;;23.40;64.50;;;;;;5032511;28;20521;-63
2022/09/01 04:51:50;;;;;;;10.67;3.30;;;23.40;66.30;;;;;;5033118;28;20484;-62
2022/09/01 04:54:18;;;;;;;6.90;3.63;;;23.40;67.70;;;;;;5032971;28;20511;-63
2022/09/01 04:56:48;;;;;;;12.60;4.97;;;23.40;68.20;;;;;;5032890;28;20607;-63
2022/09/01 04:59:15;;;;;;;11.20;4.73;;;23.50;69.80;;;;;;5031406;28;20461;-64
2022/09/01 05:01:45;;;;;;;11.33;5.67;;;23.50;70.50;;;;;;5032884;28;20484;-63
2022/09/01 05:04:16;;;;;;;8.80;5.17;;;23.50;72.10;;;;;;5033369;28;20445;-63
2022/09/01 05:06:45;;;;;;;6.03;4.60;;;23.50;72.00;;;;;;5033670;28;21102;-63
2022/09/01 05:09:12;;;;;;;9.47;4.13;;;23.50;71.60;;;;;;5033351;28;20587;-63
2022/09/01 05:11:44;;;;;;;8.90;4.73;;;23.50;71.10;;;;;;5033904;28;20475;-63
2022/09/01 05:14:11;;;;;;;6.40;3.43;;;23.50;70.80;;;;;;5034019;28;20449;-63
2022/09/01 05:16:40;;;;;;;4.50;3.00;;;23.50;70.30;;;;;;5033960;28;20812;-63
2022/09/01 05:19:13;;;;;;;6.20;3.30;;;23.50;70.00;;;;;;5033511;28;20463;-63
2022/09/01 05:21:44;;;;;;;9.43;3.53;;;23.50;69.50;;;;;;5033694;28;20813;-63
2022/09/01 05:24:14;;;;;;;7.80;3.70;;;23.50;69.20;;;;;;5033639;28;20476;-63
2022/09/01 05:26:43;;;;;;;5.60;3.80;;;23.50;68.80;;;;;;5034305;28;20438;-63
2022/09/01 05:29:12;;;;;;;6.93;3.60;;;23.50;68.40;;;;;;5033361;28;20542;-63
2022/09/01 05:31:41;;;;;;;5.27;3.53;;;23.50;68.20;;;;;;5033491;28;20453;-63
2022/09/01 05:34:09;;;;;;;4.10;3.23;;;23.50;68.10;;;;;;5033655;28;20831;-63
2022/09/01 05:36:40;;;;;;;5.73;3.53;;;23.50;67.70;;;;;;5033941;28;20457;-63
2022/09/01 05:39:11;;;;;;;3.77;3.47;;;23.50;67.50;;;;;;5033549;28;20487;-63
2022/09/01 05:41:38;;;;;;;4.23;2.83;;;23.50;67.30;;;;;;5032979;28;20951;-63
2022/09/01 05:44:07;;;;;;;2.53;2.33;;;23.50;67.10;;;;;;5034091;28;20784;-63
2022/09/01 05:46:35;;;;;;;4.17;3.00;;;23.50;67.00;;;;;;5033953;28;20472;-63
2022/09/01 05:49:01;;;;;;;4.60;2.90;;;23.50;66.80;;;;;;5033228;28;20522;-62
2022/09/01 05:51:35;;;;;;;3.43;2.27;;;23.50;66.60;;;;;;5033398;28;20997;-63
2022/09/01 05:54:03;;;;;;;2.63;2.37;;;23.50;66.40;;;;;;5033105;28;20447;-63
2022/09/01 05:56:32;;;;;;;7.50;2.60;;;23.50;66.30;;;;;;5033159;28;20942;-63
2022/09/01 05:59:01;;;;;;;4.40;2.00;;;23.50;66.10;;;;;;5032998;28;20469;-63
2022/09/01 06:01:32;;;;;;;3.57;3.23;;;23.50;66.10;;;;;;5032671;28;20499;-63
2022/09/01 06:04:02;;;;;;;2.30;2.20;;;23.50;65.90;;;;;;5032398;28;20452;-63
2022/09/01 06:06:36;;;;;;;3.17;2.40;;;23.50;65.90;;;;;;5032887;28;20437;-63
2022/09/01 06:09:04;;;;;;;2.40;2.20;;;23.50;65.80;;;;;;5032733;28;20970;-63
2022/09/01 06:11:33;;;;;;;3.50;2.20;;;23.50;65.70;;;;;;5033068;28;20892;-63
2022/09/01 06:14:00;;;;;;;2.40;1.90;;;23.50;65.70;;;;;;5033208;28;20480;-63
2022/09/01 06:16:29;;;;;;;2.83;2.40;;;23.50;65.60;;;;;;5032818;28;20480;-63
2022/09/01 06:18:58;;;;;;;2.20;2.10;;;23.50;66.10;;;;;;5032401;28;20468;-63
2022/09/01 06:21:27;;;;;;;3.07;2.30;;;23.50;65.70;;;;;;5032695;28;20449;-63
2022/09/01 06:23:55;;;;;;;3.13;1.80;;;23.50;65.50;;;;;;5032949;28;20456;-63
2022/09/01 06:26:27;;;;;;;3.97;2.60;;;23.50;65.50;;;;;;5032631;28;20477;-63
2022/09/01 06:28:57;;;;;;;1.93;1.83;;;23.50;65.40;;;;;;5032481;28;20469;-63
2022/09/01 06:31:25;;;;;;;2.20;1.80;;;23.50;65.50;;;;;;5033054;28;20547;-63
2022/09/01 06:33:53;;;;;;;1.90;1.80;;;23.50;65.50;;;;;;5032467;28;20536;-63
2022/09/01 06:36:22;;;;;;;3.60;2.20;;;23.50;65.60;;;;;;5031791;28;20528;-63
2022/09/01 06:38:50;;;;;;;1.80;1.70;;;23.50;65.70;;;;;;5031813;28;20572;-63
2022/09/01 06:41:18;;;;;;;1.90;1.80;;;23.50;65.90;;;;;;5031439;28;20445;-62
2022/09/01 06:43:46;;;;;;;1.93;1.83;;;23.50;66.00;;;;;;5031428;28;20475;-63
2022/09/01 06:46:14;;;;;;;2.07;1.97;;;23.50;66.10;;;;;;5031562;28;20444;-63
2022/09/01 06:48:45;;;;;;;1.77;1.67;;;23.50;66.90;;;;;;5031391;28;20877;-63
2022/09/01 06:51:14;;;;;;;4.17;2.10;;;23.40;65.90;;;;;;5031232;28;20489;-62
2022/09/01 06:53:41;;;;;;;2.60;2.40;;;23.40;66.00;;;;;;5034575;28;20445;-62
2022/09/01 06:56:12;;;;;;;1.93;1.60;;;23.50;65.90;;;;;;5035263;28;20456;-63
2022/09/01 06:58:40;;;;;;;3.57;2.00;;;23.50;66.10;;;;;;5034970;28;20542;-63
2022/09/01 07:01:14;;;;;;;3.27;2.43;;;23.50;66.30;;;;;;5035001;28;20973;-62
2022/09/01 07:03:43;;;;;;;1.70;1.53;;;23.40;66.10;;;;;;5035303;28;20445;-61
2022/09/01 07:06:12;;;;;;;2.87;2.13;;;23.50;66.20;;;;;;5034970;28;21034;-63
2022/09/01 07:08:40;;;;;;;3.73;1.97;;;23.40;66.70;;;;;;5034816;28;20469;-63
2022/09/01 07:11:09;;;;;;;1.83;1.73;;;23.40;65.80;;;;;;5034720;28;20484;-62
2022/09/01 07:13:37;;;;;;;1.90;1.80;;;23.50;65.80;;;;;;5034885;28;20455;-62
2022/09/01 07:16:05;;;;;;;2.80;1.90;;;23.40;65.60;;;;;;5034925;28;20522;-61
2022/09/01 07:18:33;;;;;;;3.00;1.60;;;23.40;65.30;;;;;;5034531;28;21024;-62
2022/09/01 07:21:06;;;;;;;1.80;1.70;;;23.50;65.20;;;;;;5034880;28;20469;-61
2022/09/01 07:23:33;;;;;;;2.10;1.60;;;23.40;64.80;;;;;;5034875;28;20449;-64
2022/09/01 07:26:00;;;;;;;2.33;1.97;;;23.40;64.60;;;;;;5034838;28;20532;-64
2022/09/01 07:28:31;;;;;;;1.90;1.80;;;23.40;64.50;;;;;;5034504;28;20502;-64
2022/09/01 07:30:58;;;;;;;3.93;1.47;;;23.50;64.60;;;;;;5034394;28;20847;-61
2022/09/01 07:33:29;;;;;;;1.50;1.40;;;23.40;64.40;;;;;;5034591;28;20456;-63
2022/09/01 07:35:56;;;;;;;1.50;1.40;;;23.50;64.30;;;;;;5034798;28;20445;-63
2022/09/01 07:38:25;;;;;;;3.70;1.70;;;23.50;64.00;;;;;;5034290;28;20480;-63
2022/09/01 07:40:53;;;;;;;1.43;1.30;;;23.50;64.00;;;;;;5034324;28;20533;-63
2022/09/01 07:43:23;;;;;;;2.07;1.43;;;23.50;63.90;;;;;;5034270;28;20498;-62
2022/09/01 07:45:54;;;;;;;1.67;1.57;;;23.50;63.70;;;;;;5034426;28;20854;-63
2022/09/01 07:48:24;;;;;;;1.87;1.60;;;23.40;63.60;;;;;;5034332;28;20540;-63
2022/09/01 07:50:53;;;;;;;3.43;1.50;;;23.50;63.90;;;;;;5034052;28;20485;-63
2022/09/01 07:53:23;;;;;;;1.27;1.23;;;23.40;63.70;;;;;;5034388;28;20950;-63
2022/09/01 07:55:53;;;;;;;1.43;1.30;;;23.40;63.90;;;;;;5034153;28;20792;-63
2022/09/01 07:58:21;;;;;;;1.50;1.40;;;23.50;64.00;;;;;;5034176;28;20467;-63
2022/09/01 08:00:48;;;;;;;1.43;1.30;;;23.40;64.10;;;;;;5033926;28;20471;-63
2022/09/01 08:03:16;;;;;;;2.30;1.47;;;23.50;64.00;;;;;;5033631;28;20449;-63
2022/09/01 08:05:44;;;;;;;3.13;1.67;;;23.50;63.90;;;;;;5033227;28;20448;-63
2022/09/01 08:08:10;;;;;;;1.30;1.30;;;23.40;63.30;;;;;;5033851;28;20465;-63
2022/09/01 08:10:39;;;;;;;1.70;1.60;;;23.40;63.60;;;;;;5033523;28;21049;-64
2022/09/01 08:13:08;;;;;;;1.80;1.70;;;23.50;63.90;;;;;;5033750;28;20874;-64
2022/09/01 08:15:35;;;;;;;1.50;1.40;;;23.50;63.90;;;;;;5033811;28;20452;-63
2022/09/01 08:18:02;;;;;;;1.40;1.30;;;23.50;63.90;;;;;;5033691;28;20555;-63
2022/09/01 08:20:29;;;;;;;1.53;1.47;;;23.50;63.90;;;;;;5033577;28;20473;-64
2022/09/01 08:22:56;;;;;;;2.67;1.33;;;23.50;63.90;;;;;;5033776;28;20445;-61
2022/09/01 08:25:23;;;;;;;1.63;1.53;;;23.50;63.70;;;;;;5033732;28;20540;-63
2022/09/01 08:27:50;;;;;;;1.53;1.17;;;23.50;63.40;;;;;;5033403;28;20904;-62
2022/09/01 08:30:19;;;;;;;1.63;1.43;;;23.50;62.70;;;;;;5033093;28;20574;-63
2022/09/01 08:32:46;;;;;;;1.53;1.10;;;23.50;61.70;;;;;;5033449;28;20481;-63
2022/09/01 08:35:15;;;;;;;2.03;1.80;;;23.50;61.10;;;;;;5033477;28;20998;-63
2022/09/01 08:37:42;;;;;;;1.60;1.50;;;23.50;60.60;;;;;;5033311;28;20453;-63
2022/09/01 08:40:14;;;;;;;1.37;1.27;;;23.50;59.60;;;;;;5033170;28;20523;-63
2022/09/01 08:42:52;;;;;;;2.50;1.30;;;23.50;59.10;;;;;;5033518;28;20453;-63
2022/09/01 08:45:26;;;;;;;1.90;1.40;;;23.50;58.50;;;;;;5033335;28;20538;-64
2022/09/01 08:47:54;;;;;;;2.53;1.60;;;23.50;58.20;;;;;;5033179;28;20462;-63
2022/09/01 08:50:22;;;;;;;1.27;1.23;;;23.50;57.90;;;;;;5033029;28;20516;-63
2022/09/01 08:52:55;;;;;;;0.97;0.97;;;23.50;57.60;;;;;;5033262;28;20942;-63
2022/09/01 08:55:28;;;;;;;1.23;1.23;;;23.50;57.60;;;;;;5033273;28;20476;-63
2022/09/01 08:57:56;;;;;;;1.10;1.10;;;23.50;57.30;;;;;;5033545;28;20461;-63
2022/09/01 09:00:28;;;;;;;1.30;1.20;;;23.40;56.80;;;;;;5033141;28;20476;-61
2022/09/01 09:03:06;;;;;;;1.90;1.27;;;23.50;56.70;;;;;;5033138;28;20507;-62
2022/09/01 09:05:43;;;;;;;1.23;1.23;;;23.50;56.40;;;;;;5032911;28;20451;-63
2022/09/01 09:08:42;;;;;;;1.63;1.20;;;23.50;56.10;;;;;;5032875;28;20496;-63
2022/09/01 09:11:18;;;;;;;1.90;1.10;;;23.40;55.50;;;;;;5017926;28;20567;-63
2022/09/01 09:13:55;;;;;;;1.03;0.90;;;23.40;55.20;;;;;;5033221;28;20795;-63
2022/09/01 09:16:27;;;;;;;1.00;1.00;;;23.40;54.80;;;;;;5033011;28;20441;-64
2022/09/01 09:18:58;;;;;;;1.53;1.43;;;23.40;54.20;;;;;;5033270;28;20846;-64
2022/09/01 09:21:29;;;;;;;1.50;1.40;;;23.40;54.40;;;;;;5033091;28;20533;-64
2022/09/01 09:24:06;;;;;;;1.03;1.00;;;23.40;53.30;;;;;;5033144;28;20445;-63
2022/09/01 09:26:33;;;;;;;1.30;1.30;;;23.40;53.20;;;;;;5032922;28;20942;-63
2022/09/01 09:29:00;;;;;;;4.10;1.40;;;23.40;52.30;;;;;;5032266;28;20477;-63
2022/09/01 09:31:33;;;;;;;1.03;1.03;;;23.40;51.90;;;;;;5032510;28;20897;-63
2022/09/01 09:34:01;;;;;;;2.03;1.93;;;23.40;51.70;;;;;;5032587;28;20580;-63
2022/09/01 09:36:34;;;;;;;1.63;1.23;;;23.40;51.70;;;;;;5032562;28;20487;-63
2022/09/01 09:39:09;;;;;;;1.20;1.10;;;23.40;51.90;;;;;;5032424;28;20563;-63
2022/09/01 09:41:36;;;;;;;1.33;1.23;;;23.40;51.80;;;;;;5032455;28;20450;-63
2022/09/01 09:44:13;;;;;;;1.73;1.20;;;23.40;51.20;;;;;;5032417;28;20523;-63
2022/09/01 09:46:44;;;;;;;1.40;1.40;;;23.40;51.40;;;;;;5032525;28;20518;-63
2022/09/01 09:49:19;;;;;;;0.87;0.87;;;23.40;50.70;;;;;;5032525;28;20473;-63
2022/09/01 09:51:49;;;;;;;1.13;1.13;;;23.40;50.20;;;;;;5032577;28;20504;-63
2022/09/01 09:54:21;;;;;;;1.60;1.50;;;23.40;50.50;;;;;;5032327;28;20517;-63
2022/09/01 09:56:50;;;;;;;1.40;1.30;;;23.40;50.30;;;;;;5032205;28;20533;-63
2022/09/01 09:59:26;;;;;;;1.93;1.13;;;23.40;50.10;;;;;;5032069;28;20897;-63
2022/09/01 10:01:58;;;;;;;1.10;1.03;;;23.40;50.00;;;;;;5031966;28;20536;-63
2022/09/01 10:04:34;;;;;;;1.57;0.97;;;23.40;50.30;;;;;;5031942;28;20853;-63
2022/09/01 10:07:01;;;;;;;1.83;1.57;;;23.40;49.90;;;;;;5031851;28;20488;-63
2022/09/01 10:09:37;;;;;;;1.90;1.80;;;23.40;50.00;;;;;;5031502;28;21023;-63
2022/09/01 10:12:05;;;;;;;4.17;1.20;;;23.40;50.10;;;;;;5031807;28;20561;-63
2022/09/01 10:14:46;;;;;;;1.43;1.23;;;23.40;50.00;;;;;;5031945;28;20857;-63
2022/09/01 10:17:16;;;;;;;1.17;1.17;;;23.50;50.10;;;;;;5031858;28;20448;-63
2022/09/01 10:19:50;;;;;;;1.10;1.10;;;23.40;49.90;;;;;;5031780;28;20469;-63
2022/09/01 10:22:17;;;;;;;1.20;1.20;;;23.40;49.90;;;;;;5032097;28;20472;-63
2022/09/01 10:24:44;;;;;;;0.80;0.80;;;23.40;50.00;;;;;;5032233;28;20528;-63
2022/09/01 10:27:17;;;;;;;1.20;1.20;;;23.40;49.70;;;;;;5032514;28;20481;-63
2022/09/01 10:29:49;;;;;;;1.00;1.00;;;23.40;49.70;;;;;;5035730;28;20518;-63
2022/09/01 10:32:21;;;;;;;1.07;1.07;;;23.40;49.90;;;;;;5035887;28;20516;-63
2022/09/01 10:34:49;;;;;;;1.30;1.20;;;23.50;49.80;;;;;;5035814;28;20532;-63
2022/09/01 10:37:17;;;;;;;1.00;1.00;;;23.50;50.10;;;;;;5035898;28;20481;-63
2022/09/01 10:40:32;;;;;;;1.33;1.33;;;23.50;49.90;;;;;;5035446;28;20564;-63
2022/09/01 10:43:20;;;;;;;1.37;1.00;;;23.50;49.80;;;;;;5001093;28;20847;-63
2022/09/01 10:45:48;;;;;;;1.53;1.43;;;23.50;49.90;;;;;;5035728;28;20456;-63
2022/09/01 10:48:30;;;;;;;1.53;1.43;;;23.50;49.70;;;;;;5035391;28;20543;-63
2022/09/01 10:51:30;;;;;;;1.20;1.20;;;23.50;49.90;;;;;;5035289;28;20580;-63
2022/09/01 10:53:58;;;;;;;1.00;1.00;;;23.50;49.90;;;;;;5035138;28;20977;-63
2022/09/01 10:56:36;;;;;;;0.90;0.90;;;23.50;50.20;;;;;;5035361;28;20445;-63
2022/09/01 10:59:10;;;;;;;1.00;0.93;;;23.50;50.20;;;;;;5035113;28;21005;-62
2022/09/01 11:02:11;;;;;;;1.20;1.00;;;23.50;50.10;;;;;;5035125;28;20487;-63
2022/09/01 11:05:16;;;;;;;2.93;1.30;;;23.50;50.10;;;;;;5035525;28;20480;-63
2022/09/01 11:07:45;;;;;;;0.90;0.90;;;23.50;50.20;;;;;;5035102;28;20871;-63
2022/09/01 11:10:31;;;;;;;0.87;0.87;;;23.50;50.00;;;;;;5034793;28;20449;-62
2022/09/01 11:13:28;;;;;;;1.40;1.30;;;23.50;50.20;;;;;;5035029;28;20444;-63
2022/09/01 11:15:55;;;;;;;1.00;1.00;;;23.50;50.10;;;;;;5034877;28;20473;-63
2022/09/01 11:18:28;;;;;;;1.70;1.10;;;23.50;50.10;;;;;;5034823;28;20563;-62
2022/09/01 11:20:55;;;;;;;1.10;1.10;;;23.50;50.00;;;;;;5034806;28;20437;-63
2022/09/01 11:23:26;;;;;;;2.00;1.50;;;23.50;50.10;;;;;;5034720;28;20445;-63
2022/09/01 11:25:54;;;;;;;1.33;1.33;;;23.50;49.40;;;;;;5034688;28;20853;-63
2022/09/01 11:28:42;;;;;;;1.93;1.03;;;23.50;49.90;;;;;;5034574;28;20488;-63
2022/09/01 11:31:23;;;;;;;3.30;1.57;;;23.50;49.90;;;;;;5030073;28;20484;-63
2022/09/01 11:34:01;;;;;;;1.73;1.20;;;23.50;49.70;;;;;;5034958;28;20972;-63
2022/09/01 11:36:33;;;;;;;1.17;1.03;;;23.50;49.70;;;;;;5034629;28;20480;-63
2022/09/01 11:39:08;;;;;;;1.00;1.00;;;23.50;49.70;;;;;;5034329;28;20508;-63
2022/09/01 11:41:46;;;;;;;1.10;1.10;;;23.50;49.80;;;;;;5034466;28;20472;-63
2022/09/01 11:44:18;;;;;;;1.20;1.20;;;23.50;49.80;;;;;;5034432;28;20511;-63
2022/09/01 11:46:45;;;;;;;1.00;1.00;;;23.60;50.10;;;;;;5034249;28;20520;-61
2022/09/01 11:49:27;;;;;;;1.30;1.30;;;23.50;49.90;;;;;;5034097;28;20772;-63
2022/09/01 11:51:56;;;;;;;1.33;1.23;;;23.60;50.20;;;;;;5034147;28;20480;-63
2022/09/01 11:54:23;;;;;;;1.00;1.00;;;23.60;50.30;;;;;;5034198;28;20456;-63
2022/09/01 11:56:50;;;;;;;1.20;1.20;;;23.60;50.10;;;;;;5034169;28;20479;-62
2022/09/01 11:59:30;;;;;;;1.23;1.23;;;23.60;50.20;;;;;;5033900;28;20903;-63
2022/09/01 12:01:58;;;;;;;1.57;1.07;;;23.60;50.00;;;;;;5034084;28;20492;-63
2022/09/01 12:04:32;;;;;;;1.40;1.30;;;23.60;50.10;;;;;;5034098;28;20532;-63
2022/09/01 12:07:02;;;;;;;1.20;1.20;;;23.60;50.20;;;;;;5033956;28;20449;-63
2022/09/01 12:09:37;;;;;;;1.40;1.30;;;23.60;50.20;;;;;;5033675;28;20526;-63
2022/09/01 12:12:05;;;;;;;3.47;1.30;;;23.60;50.20;;;;;;5033922;28;20568;-63
2022/09/01 12:14:31;;;;;;;3.60;1.57;;;23.70;50.20;;;;;;5033856;28;20876;-63
2022/09/01 12:17:02;;;;;;;1.07;1.07;;;23.70;49.90;;;;;;5033874;28;20448;-63
2022/09/01 12:19:32;;;;;;;1.63;1.40;;;23.70;49.70;;;;;;5034203;28;20556;-63
2022/09/01 12:22:02;;;;;;;1.40;1.40;;;23.70;50.10;;;;;;5037744;28;20445;-63
2022/09/01 12:24:33;;;;;;;1.50;1.40;;;23.70;49.90;;;;;;5033764;28;20951;-63
2022/09/01 12:27:01;;;;;;;1.90;1.80;;;23.70;50.10;;;;;;5033517;28;20481;-63
2022/09/01 12:29:30;;;;;;;1.77;1.67;;;23.70;50.20;;;;;;5033278;28;20500;-61
2022/09/01 12:31:58;;;;;;;1.60;1.33;;;23.70;50.10;;;;;;5033319;28;20491;-63
2022/09/01 12:34:45;;;;;;;1.40;1.40;;;23.70;49.90;;;;;;5033531;28;20792;-63
2022/09/01 12:37:20;;;;;;;1.13;1.13;;;23.70;49.60;;;;;;5033399;28;20528;-63
2022/09/01 12:39:50;;;;;;;1.53;1.53;;;23.70;49.80;;;;;;5033661;28;20592;-63
2022/09/01 12:42:26;;;;;;;1.63;1.53;;;23.70;49.90;;;;;;5033716;28;20448;-63
2022/09/01 12:44:56;;;;;;;1.40;1.30;;;23.80;49.70;;;;;;5033361;28;20528;-63
2022/09/01 12:47:49;;;;;;;1.67;1.57;;;23.80;49.80;;;;;;5033415;28;20449;-63
2022/09/01 12:50:42;;;;;;;1.40;1.40;;;23.80;50.00;;;;;;5032366;28;20448;-63
2022/09/01 12:53:17;;;;;;;1.10;1.10;;;23.80;49.80;;;;;;5033015;28;20998;-63
2022/09/01 12:56:21;;;;;;;1.70;1.70;;;23.80;49.80;;;;;;5033203;28;20477;-63
2022/09/01 12:58:53;;;;;;;2.00;1.90;;;23.80;50.00;;;;;;4997615;28;20477;-62
2022/09/01 13:01:30;;;;;;;1.63;1.30;;;23.80;50.20;;;;;;5033077;28;20453;-63
2022/09/01 13:04:31;;;;;;;1.47;1.47;;;23.80;50.00;;;;;;5032962;28;20445;-63
2022/09/01 13:07:03;;;;;;;1.37;1.37;;;23.80;50.20;;;;;;5032776;28;20436;-63
2022/09/01 13:09:30;;;;;;;1.63;1.50;;;23.80;50.30;;;;;;5032703;28;20492;-63
2022/09/01 13:12:16;;;;;;;1.40;1.27;;;23.80;50.20;;;;;;5033081;28;21036;-63